sensor_id;sensor_type;location;lat;lon;timestamp;P1;P2;P0
74419;PMS5003;62855;50.718;-2.460;2024-01-25T00:02:06;9.98;8.80;
74419;PMS5003;62855;50.718;-2.460;2024-01-25T00:05:05;8.17;8.80;
74419;PMS5003;62855;50.718;-2.460;2024-01-25T00:08:05;9.08;7.82;
74419;PMS5003;62855;50.718;-2.460;2024-01-25T00:11:06;10.89;7.82;
74419;PMS5003;62855;50.718;-2.460;2024-01-25T00:14:05;9.98;6.84;
74419;PMS5003;62855;50.718;-2.460;2024-01-25T00:17:06;9.98;5.87;
74419;PMS5003;62855;50.718;-2.460;2024-01-25T00:20:06;9.08;5.87;
74419;PMS5003;62855;50.718;-2.460;2024-01-25T00:23:06;9.98;5.87;
74419;PMS5003;62855;50.718;-2.460;2024-01-25T00:26:05;10.89;6.84;
74419;PMS5003;62855;50.718;-2.460;2024-01-25T00:29:05;10.89;6.84;
74419;PMS5003;62855;50.718;-2.460;2024-01-25T00:32:06;9.08;4.89;
74419;PMS5003;62855;50.718;-2.460;2024-01-25T00:35:06;9.08;4.89;
74419;PMS5003;62855;50.718;-2.460;2024-01-25T00:38:06;8.17;4.89;
74419;PMS5003;62855;50.718;-2.460;2024-01-25T00:41:05;6.35;4.89;
74419;PMS5003;62855;50.718;-2.460;2024-01-25T00:44:05;7.26;4.89;
74419;PMS5003;62855;50.718;-2.460;2024-01-25T00:47:05;8.17;6.84;
74419;PMS5003;62855;50.718;-2.460;2024-01-25T00:50:06;8.17;6.84;
74419;PMS5003;62855;50.718;-2.460;2024-01-25T00:53:06;9.08;7.82;
74419;PMS5003;62855;50.718;-2.460;2024-01-25T00:56:06;9.08;6.84;
74419;PMS5003;62855;50.718;-2.460;2024-01-25T00:59:06;9.08;6.84;
74419;PMS5003;62855;50.718;-2.460;2024-01-25T01:02:06;9.98;7.82;
74419;PMS5003;62855;50.718;-2.460;2024-01-25T01:05:06;9.98;6.84;
74419;PMS5003;62855;50.718;-2.460;2024-01-25T01:08:06;9.08;6.84;
74419;PMS5003;62855;50.718;-2.460;2024-01-25T01:11:06;8.17;5.87;
74419;PMS5003;62855;50.718;-2.460;2024-01-25T01:14:05;7.26;5.87;
74419;PMS5003;62855;50.718;-2.460;2024-01-25T01:17:06;6.35;4.89;
74419;PMS5003;62855;50.718;-2.460;2024-01-25T01:20:06;6.35;5.87;
74419;PMS5003;62855;50.718;-2.460;2024-01-25T01:23:06;6.35;4.89;
74419;PMS5003;62855;50.718;-2.460;2024-01-25T01:26:06;5.45;3.91;
74419;PMS5003;62855;50.718;-2.460;2024-01-25T01:29:06;4.54;2.93;
74419;PMS5003;62855;50.718;-2.460;2024-01-25T01:32:05;4.54;2.93;
74419;PMS5003;62855;50.718;-2.460;2024-01-25T01:35:06;6.35;3.91;
74419;PMS5003;62855;50.718;-2.460;2024-01-25T01:38:06;6.35;2.93;
74419;PMS5003;62855;50.718;-2.460;2024-01-25T01:41:05;6.35;3.91;
74419;PMS5003;62855;50.718;-2.460;2024-01-25T01:44:06;6.35;3.91;
74419;PMS5003;62855;50.718;-2.460;2024-01-25T01:47:05;6.35;2.93;
74419;PMS5003;62855;50.718;-2.460;2024-01-25T01:50:06;9.98;3.91;
74419;PMS5003;62855;50.718;-2.460;2024-01-25T01:53:06;9.08;3.91;
74419;PMS5003;62855;50.718;-2.460;2024-01-25T01:56:06;9.98;3.91;
74419;PMS5003;62855;50.718;-2.460;2024-01-25T01:59:07;9.98;3.91;
74419;PMS5003;62855;50.718;-2.460;2024-01-25T02:02:07;9.98;3.91;
74419;PMS5003;62855;50.718;-2.460;2024-01-25T02:05:06;8.17;3.91;
74419;PMS5003;62855;50.718;-2.460;2024-01-25T02:08:05;9.08;4.89;
74419;PMS5003;62855;50.718;-2.460;2024-01-25T02:11:06;9.08;4.89;
74419;PMS5003;62855;50.718;-2.460;2024-01-25T02:14:05;9.98;5.87;
74419;PMS5003;62855;50.718;-2.460;2024-01-25T02:17:06;11.80;5.87;
74419;PMS5003;62855;50.718;-2.460;2024-01-25T02:20:07;9.08;5.87;
74419;PMS5003;62855;50.718;-2.460;2024-01-25T02:23:06;9.08;5.87;
74419;PMS5003;62855;50.718;-2.460;2024-01-25T02:26:06;9.08;4.89;
74419;PMS5003;62855;50.718;-2.460;2024-01-25T02:29:06;9.08;4.89;
74419;PMS5003;62855;50.718;-2.460;2024-01-25T02:32:05;9.08;4.89;
74419;PMS5003;62855;50.718;-2.460;2024-01-25T02:35:06;9.98;5.87;
74419;PMS5003;62855;50.718;-2.460;2024-01-25T02:38:06;10.89;5.87;
74419;PMS5003;62855;50.718;-2.460;2024-01-25T02:41:05;11.80;5.87;
74419;PMS5003;62855;50.718;-2.460;2024-01-25T02:44:06;11.80;6.84;
74419;PMS5003;62855;50.718;-2.460;2024-01-25T02:47:05;9.98;5.87;
74419;PMS5003;62855;50.718;-2.460;2024-01-25T02:50:06;9.98;6.84;
74419;PMS5003;62855;50.718;-2.460;2024-01-25T02:53:06;9.98;6.84;
74419;PMS5003;62855;50.718;-2.460;2024-01-25T02:56:06;9.98;6.84;
74419;PMS5003;62855;50.718;-2.460;2024-01-25T02:59:06;8.17;5.87;
74419;PMS5003;62855;50.718;-2.460;2024-01-25T03:02:06;8.17;5.87;
74419;PMS5003;62855;50.718;-2.460;2024-01-25T03:05:05;7.26;5.87;
74419;PMS5003;62855;50.718;-2.460;2024-01-25T03:08:05;4.54;3.91;
74419;PMS5003;62855;50.718;-2.460;2024-01-25T03:11:06;4.54;3.91;
74419;PMS5003;62855;50.718;-2.460;2024-01-25T03:14:05;4.54;2.93;
74419;PMS5003;62855;50.718;-2.460;2024-01-25T03:17:06;5.45;3.91;
74419;PMS5003;62855;50.718;-2.460;2024-01-25T03:20:06;5.45;3.91;
74419;PMS5003;62855;50.718;-2.460;2024-01-25T03:23:06;6.35;4.89;
74419;PMS5003;62855;50.718;-2.460;2024-01-25T03:26:06;6.35;4.89;
74419;PMS5003;62855;50.718;-2.460;2024-01-25T03:29:05;7.26;4.89;
74419;PMS5003;62855;50.718;-2.460;2024-01-25T03:32:06;8.17;4.89;
74419;PMS5003;62855;50.718;-2.460;2024-01-25T03:35:05;10.89;5.87;
74419;PMS5003;62855;50.718;-2.460;2024-01-25T03:38:05;13.61;6.84;
74419;PMS5003;62855;50.718;-2.460;2024-01-25T03:41:06;12.71;6.84;
74419;PMS5003;62855;50.718;-2.460;2024-01-25T03:44:06;11.80;5.87;
74419;PMS5003;62855;50.718;-2.460;2024-01-25T03:47:05;10.89;4.89;
74419;PMS5003;62855;50.718;-2.460;2024-01-25T03:50:06;10.89;5.87;
74419;PMS5003;62855;50.718;-2.460;2024-01-25T03:53:06;10.89;4.89;
74419;PMS5003;62855;50.718;-2.460;2024-01-25T03:56:10;9.98;4.89;
74419;PMS5003;62855;50.718;-2.460;2024-01-25T03:59:06;9.98;4.89;
74419;PMS5003;62855;50.718;-2.460;2024-01-25T04:02:06;10.89;4.89;
74419;PMS5003;62855;50.718;-2.460;2024-01-25T04:05:05;7.26;3.91;
74419;PMS5003;62855;50.718;-2.460;2024-01-25T04:08:05;5.45;3.91;
74419;PMS5003;62855;50.718;-2.460;2024-01-25T04:11:06;6.35;3.91;
74419;PMS5003;62855;50.718;-2.460;2024-01-25T04:14:06;6.35;3.91;
74419;PMS5003;62855;50.718;-2.460;2024-01-25T04:17:06;6.35;3.91;
74419;PMS5003;62855;50.718;-2.460;2024-01-25T04:20:06;7.26;4.89;
74419;PMS5003;62855;50.718;-2.460;2024-01-25T04:23:06;8.17;4.89;
74419;PMS5003;62855;50.718;-2.460;2024-01-25T04:26:05;9.08;4.89;
74419;PMS5003;62855;50.718;-2.460;2024-01-25T04:29:06;9.08;4.89;
74419;PMS5003;62855;50.718;-2.460;2024-01-25T04:32:06;7.26;3.91;
74419;PMS5003;62855;50.718;-2.460;2024-01-25T04:35:05;9.98;5.87;
74419;PMS5003;62855;50.718;-2.460;2024-01-25T04:38:05;9.98;5.87;
74419;PMS5003;62855;50.718;-2.460;2024-01-25T04:41:06;9.98;5.87;
74419;PMS5003;62855;50.718;-2.460;2024-01-25T04:44:05;9.98;5.87;
74419;PMS5003;62855;50.718;-2.460;2024-01-25T04:47:05;10.89;6.84;
74419;PMS5003;62855;50.718;-2.460;2024-01-25T04:50:06;11.80;6.84;
74419;PMS5003;62855;50.718;-2.460;2024-01-25T04:53:06;11.80;7.82;
74419;PMS5003;62855;50.718;-2.460;2024-01-25T04:56:07;10.89;7.82;
74419;PMS5003;62855;50.718;-2.460;2024-01-25T04:59:05;9.98;6.84;
74419;PMS5003;62855;50.718;-2.460;2024-01-25T05:02:05;10.89;6.84;
74419;PMS5003;62855;50.718;-2.460;2024-01-25T05:05:06;9.98;5.87;
74419;PMS5003;62855;50.718;-2.460;2024-01-25T05:08:06;10.89;5.87;
74419;PMS5003;62855;50.718;-2.460;2024-01-25T05:11:06;9.98;5.87;
74419;PMS5003;62855;50.718;-2.460;2024-01-25T05:14:05;11.80;6.84;
74419;PMS5003;62855;50.718;-2.460;2024-01-25T05:17:06;9.98;4.89;
74419;PMS5003;62855;50.718;-2.460;2024-01-25T05:20:07;9.08;3.91;
74419;PMS5003;62855;50.718;-2.460;2024-01-25T05:23:05;8.17;3.91;
74419;PMS5003;62855;50.718;-2.460;2024-01-25T05:26:06;9.08;4.89;
74419;PMS5003;62855;50.718;-2.460;2024-01-25T05:29:05;9.08;4.89;
74419;PMS5003;62855;50.718;-2.460;2024-01-25T05:32:16;8.17;5.87;
74419;PMS5003;62855;50.718;-2.460;2024-01-25T05:35:06;7.26;4.89;
74419;PMS5003;62855;50.718;-2.460;2024-01-25T05:38:05;7.26;4.89;
74419;PMS5003;62855;50.718;-2.460;2024-01-25T05:41:05;7.26;4.89;
74419;PMS5003;62855;50.718;-2.460;2024-01-25T05:44:06;6.35;4.89;
74419;PMS5003;62855;50.718;-2.460;2024-01-25T05:47:05;5.45;4.89;
74419;PMS5003;62855;50.718;-2.460;2024-01-25T05:50:06;8.17;4.89;
74419;PMS5003;62855;50.718;-2.460;2024-01-25T05:53:05;8.17;4.89;
74419;PMS5003;62855;50.718;-2.460;2024-01-25T05:56:06;7.26;4.89;
74419;PMS5003;62855;50.718;-2.460;2024-01-25T05:59:06;7.26;4.89;
74419;PMS5003;62855;50.718;-2.460;2024-01-25T06:02:06;8.17;4.89;
74419;PMS5003;62855;50.718;-2.460;2024-01-25T06:05:06;8.17;4.89;
74419;PMS5003;62855;50.718;-2.460;2024-01-25T06:08:05;7.26;4.89;
74419;PMS5003;62855;50.718;-2.460;2024-01-25T06:11:06;8.17;5.87;
74419;PMS5003;62855;50.718;-2.460;2024-01-25T06:14:05;8.17;5.87;
74419;PMS5003;62855;50.718;-2.460;2024-01-25T06:17:06;8.17;5.87;
74419;PMS5003;62855;50.718;-2.460;2024-01-25T06:20:07;7.26;5.87;
74419;PMS5003;62855;50.718;-2.460;2024-01-25T06:23:05;9.08;6.84;
74419;PMS5003;62855;50.718;-2.460;2024-01-25T06:26:05;9.08;5.87;
74419;PMS5003;62855;50.718;-2.460;2024-01-25T06:29:06;9.98;6.84;
74419;PMS5003;62855;50.718;-2.460;2024-01-25T06:32:07;9.08;5.87;
74419;PMS5003;62855;50.718;-2.460;2024-01-25T06:35:06;9.08;5.87;
74419;PMS5003;62855;50.718;-2.460;2024-01-25T06:38:06;9.08;5.87;
74419;PMS5003;62855;50.718;-2.460;2024-01-25T06:41:06;9.08;5.87;
74419;PMS5003;62855;50.718;-2.460;2024-01-25T06:44:07;9.08;5.87;
74419;PMS5003;62855;50.718;-2.460;2024-01-25T06:47:06;9.08;5.87;
74419;PMS5003;62855;50.718;-2.460;2024-01-25T06:50:06;9.08;4.89;
74419;PMS5003;62855;50.718;-2.460;2024-01-25T06:53:05;7.26;4.89;
74419;PMS5003;62855;50.718;-2.460;2024-01-25T06:56:07;7.26;4.89;
74419;PMS5003;62855;50.718;-2.460;2024-01-25T06:59:05;8.17;4.89;
74419;PMS5003;62855;50.718;-2.460;2024-01-25T07:02:05;8.17;3.91;
74419;PMS5003;62855;50.718;-2.460;2024-01-25T07:05:06;8.17;4.89;
74419;PMS5003;62855;50.718;-2.460;2024-01-25T07:08:06;9.08;4.89;
74419;PMS5003;62855;50.718;-2.460;2024-01-25T07:11:05;8.17;4.89;
74419;PMS5003;62855;50.718;-2.460;2024-01-25T07:14:06;7.26;3.91;
74419;PMS5003;62855;50.718;-2.460;2024-01-25T07:17:05;9.08;4.89;
74419;PMS5003;62855;50.718;-2.460;2024-01-25T07:20:06;8.17;4.89;
74419;PMS5003;62855;50.718;-2.460;2024-01-25T07:23:06;9.08;5.87;
74419;PMS5003;62855;50.718;-2.460;2024-01-25T07:26:05;9.08;5.87;
74419;PMS5003;62855;50.718;-2.460;2024-01-25T07:29:05;8.17;5.87;
74419;PMS5003;62855;50.718;-2.460;2024-01-25T07:32:06;8.17;5.87;
74419;PMS5003;62855;50.718;-2.460;2024-01-25T07:35:06;9.08;5.87;
74419;PMS5003;62855;50.718;-2.460;2024-01-25T07:38:05;9.08;4.89;
74419;PMS5003;62855;50.718;-2.460;2024-01-25T07:41:05;9.98;5.87;
74419;PMS5003;62855;50.718;-2.460;2024-01-25T07:44:05;10.89;5.87;
74419;PMS5003;62855;50.718;-2.460;2024-01-25T07:47:06;9.08;5.87;
74419;PMS5003;62855;50.718;-2.460;2024-01-25T07:50:05;9.98;6.84;
74419;PMS5003;62855;50.718;-2.460;2024-01-25T07:53:06;9.08;6.84;
74419;PMS5003;62855;50.718;-2.460;2024-01-25T07:56:06;9.98;6.84;
74419;PMS5003;62855;50.718;-2.460;2024-01-25T07:59:05;9.08;6.84;
74419;PMS5003;62855;50.718;-2.460;2024-01-25T08:02:06;9.08;6.84;
74419;PMS5003;62855;50.718;-2.460;2024-01-25T08:05:05;8.17;6.84;
74419;PMS5003;62855;50.718;-2.460;2024-01-25T08:08:06;9.98;6.84;
74419;PMS5003;62855;50.718;-2.460;2024-01-25T08:11:05;8.17;5.87;
74419;PMS5003;62855;50.718;-2.460;2024-01-25T08:14:06;7.26;4.89;
74419;PMS5003;62855;50.718;-2.460;2024-01-25T08:17:05;8.17;5.87;
74419;PMS5003;62855;50.718;-2.460;2024-01-25T08:20:06;8.17;5.87;
74419;PMS5003;62855;50.718;-2.460;2024-01-25T08:23:06;6.35;3.91;
74419;PMS5003;62855;50.718;-2.460;2024-01-25T08:26:06;6.35;4.89;
74419;PMS5003;62855;50.718;-2.460;2024-01-25T08:29:06;6.35;4.89;
74419;PMS5003;62855;50.718;-2.460;2024-01-25T08:32:05;7.26;5.87;
74419;PMS5003;62855;50.718;-2.460;2024-01-25T08:35:06;7.26;5.87;
74419;PMS5003;62855;50.718;-2.460;2024-01-25T08:38:06;5.45;5.87;
74419;PMS5003;62855;50.718;-2.460;2024-01-25T08:41:06;6.35;5.87;
74419;PMS5003;62855;50.718;-2.460;2024-01-25T08:44:07;4.54;3.91;
74419;PMS5003;62855;50.718;-2.460;2024-01-25T08:47:06;5.45;4.89;
74419;PMS5003;62855;50.718;-2.460;2024-01-25T08:50:06;5.45;3.91;
74419;PMS5003;62855;50.718;-2.460;2024-01-25T08:53:06;5.45;3.91;
74419;PMS5003;62855;50.718;-2.460;2024-01-25T08:56:07;6.35;3.91;
74419;PMS5003;62855;50.718;-2.460;2024-01-25T08:59:05;5.45;2.93;
74419;PMS5003;62855;50.718;-2.460;2024-01-25T09:02:06;6.35;3.91;
74419;PMS5003;62855;50.718;-2.460;2024-01-25T09:05:05;5.45;2.93;
74419;PMS5003;62855;50.718;-2.460;2024-01-25T09:08:07;4.54;2.93;
74419;PMS5003;62855;50.718;-2.460;2024-01-25T09:11:05;4.54;3.91;
74419;PMS5003;62855;50.718;-2.460;2024-01-25T09:14:06;5.45;4.89;
74419;PMS5003;62855;50.718;-2.460;2024-01-25T09:17:05;6.35;4.89;
74419;PMS5003;62855;50.718;-2.460;2024-01-25T09:20:07;7.26;4.89;
74419;PMS5003;62855;50.718;-2.460;2024-01-25T09:23:06;6.35;3.91;
74419;PMS5003;62855;50.718;-2.460;2024-01-25T09:26:05;5.45;3.91;
74419;PMS5003;62855;50.718;-2.460;2024-01-25T09:29:06;5.45;4.89;
74419;PMS5003;62855;50.718;-2.460;2024-01-25T09:32:07;5.45;3.91;
74419;PMS5003;62855;50.718;-2.460;2024-01-25T09:35:05;5.45;3.91;
74419;PMS5003;62855;50.718;-2.460;2024-01-25T09:38:06;5.45;3.91;
74419;PMS5003;62855;50.718;-2.460;2024-01-25T09:41:05;6.35;4.89;
74419;PMS5003;62855;50.718;-2.460;2024-01-25T09:44:06;6.35;4.89;
74419;PMS5003;62855;50.718;-2.460;2024-01-25T09:47:05;5.45;4.89;
74419;PMS5003;62855;50.718;-2.460;2024-01-25T09:50:06;4.54;3.91;
74419;PMS5003;62855;50.718;-2.460;2024-01-25T09:53:05;5.45;3.91;
74419;PMS5003;62855;50.718;-2.460;2024-01-25T09:56:06;6.35;3.91;
74419;PMS5003;62855;50.718;-2.460;2024-01-25T09:59:05;4.54;2.93;
74419;PMS5003;62855;50.718;-2.460;2024-01-25T10:02:06;5.45;2.93;
74419;PMS5003;62855;50.718;-2.460;2024-01-25T10:05:05;5.45;3.91;
74419;PMS5003;62855;50.718;-2.460;2024-01-25T10:08:11;4.54;2.93;
74419;PMS5003;62855;50.718;-2.460;2024-01-25T10:11:06;5.45;3.91;
74419;PMS5003;62855;50.718;-2.460;2024-01-25T10:14:06;5.45;3.91;
74419;PMS5003;62855;50.718;-2.460;2024-01-25T10:17:05;6.35;4.89;
74419;PMS5003;62855;50.718;-2.460;2024-01-25T10:20:06;6.35;4.89;
74419;PMS5003;62855;50.718;-2.460;2024-01-25T10:23:06;4.54;3.91;
74419;PMS5003;62855;50.718;-2.460;2024-01-25T10:26:07;4.54;3.91;
74419;PMS5003;62855;50.718;-2.460;2024-01-25T10:29:06;4.54;3.91;
74419;PMS5003;62855;50.718;-2.460;2024-01-25T10:32:05;3.63;2.93;
74419;PMS5003;62855;50.718;-2.460;2024-01-25T10:35:06;3.63;2.93;
74419;PMS5003;62855;50.718;-2.460;2024-01-25T10:38:05;3.63;1.96;
74419;PMS5003;62855;50.718;-2.460;2024-01-25T10:41:06;3.63;2.93;
74419;PMS5003;62855;50.718;-2.460;2024-01-25T10:44:05;2.72;1.96;
74419;PMS5003;62855;50.718;-2.460;2024-01-25T10:47:06;3.63;1.96;
74419;PMS5003;62855;50.718;-2.460;2024-01-25T10:50:06;3.63;1.96;
74419;PMS5003;62855;50.718;-2.460;2024-01-25T10:53:05;3.63;1.96;
74419;PMS5003;62855;50.718;-2.460;2024-01-25T10:56:06;3.63;1.96;
74419;PMS5003;62855;50.718;-2.460;2024-01-25T10:59:06;3.63;2.93;
74419;PMS5003;62855;50.718;-2.460;2024-01-25T11:02:06;3.63;2.93;
74419;PMS5003;62855;50.718;-2.460;2024-01-25T11:05:06;4.54;3.91;
74419;PMS5003;62855;50.718;-2.460;2024-01-25T11:08:16;5.45;3.91;
74419;PMS5003;62855;50.718;-2.460;2024-01-25T11:11:06;4.54;3.91;
74419;PMS5003;62855;50.718;-2.460;2024-01-25T11:14:10;4.54;3.91;
74419;PMS5003;62855;50.718;-2.460;2024-01-25T11:20:07;4.54;3.91;
74419;PMS5003;62855;50.718;-2.460;2024-01-25T11:23:06;4.54;3.91;
74419;PMS5003;62855;50.718;-2.460;2024-01-25T11:26:05;4.54;3.91;
74419;PMS5003;62855;50.718;-2.460;2024-01-25T11:30:13;4.54;3.91;
74419;PMS5003;62855;50.718;-2.460;2024-01-25T11:32:06;6.35;2.93;
74419;PMS5003;62855;50.718;-2.460;2024-01-25T11:35:07;5.45;1.96;
74419;PMS5003;62855;50.718;-2.460;2024-01-25T11:38:05;7.26;1.96;
74419;PMS5003;62855;50.718;-2.460;2024-01-25T11:41:07;7.26;1.96;
74419;PMS5003;62855;50.718;-2.460;2024-01-25T11:44:06;11.80;2.93;
74419;PMS5003;62855;50.718;-2.460;2024-01-25T11:47:05;11.80;2.93;
74419;PMS5003;62855;50.718;-2.460;2024-01-25T11:50:07;10.89;2.93;
74419;PMS5003;62855;50.718;-2.460;2024-01-25T11:53:06;11.80;2.93;
74419;PMS5003;62855;50.718;-2.460;2024-01-25T11:56:06;11.80;2.93;
74419;PMS5003;62855;50.718;-2.460;2024-01-25T11:59:05;11.80;2.93;
74419;PMS5003;62855;50.718;-2.460;2024-01-25T12:02:06;10.89;3.91;
74419;PMS5003;62855;50.718;-2.460;2024-01-25T12:05:05;10.89;3.91;
74419;PMS5003;62855;50.718;-2.460;2024-01-25T12:08:08;9.98;4.89;
74419;PMS5003;62855;50.718;-2.460;2024-01-25T12:11:06;12.71;4.89;
74419;PMS5003;62855;50.718;-2.460;2024-01-25T12:14:07;9.08;4.89;
74419;PMS5003;62855;50.718;-2.460;2024-01-25T12:17:05;8.17;4.89;
74419;PMS5003;62855;50.718;-2.460;2024-01-25T12:20:06;8.17;4.89;
74419;PMS5003;62855;50.718;-2.460;2024-01-25T12:23:06;11.80;6.84;
74419;PMS5003;62855;50.718;-2.460;2024-01-25T12:26:06;17.24;7.82;
74419;PMS5003;62855;50.718;-2.460;2024-01-25T12:29:05;15.43;8.80;
74419;PMS5003;62855;50.718;-2.460;2024-01-25T12:32:06;19.97;9.78;
74419;PMS5003;62855;50.718;-2.460;2024-01-25T12:35:06;14.52;6.84;
74419;PMS5003;62855;50.718;-2.460;2024-01-25T12:38:07;11.80;5.87;
74419;PMS5003;62855;50.718;-2.460;2024-01-25T12:41:05;12.71;6.84;
74419;PMS5003;62855;50.718;-2.460;2024-01-25T12:44:06;12.71;5.87;
74419;PMS5003;62855;50.718;-2.460;2024-01-25T12:47:06;10.89;4.89;
74419;PMS5003;62855;50.718;-2.460;2024-01-25T12:50:06;9.98;4.89;
74419;PMS5003;62855;50.718;-2.460;2024-01-25T12:53:06;9.08;4.89;
74419;PMS5003;62855;50.718;-2.460;2024-01-25T12:56:05;6.35;3.91;
74419;PMS5003;62855;50.718;-2.460;2024-01-25T12:59:06;5.45;4.89;
74419;PMS5003;62855;50.718;-2.460;2024-01-25T13:02:05;5.45;4.89;
74419;PMS5003;62855;50.718;-2.460;2024-01-25T13:05:05;6.35;4.89;
74419;PMS5003;62855;50.718;-2.460;2024-01-25T13:08:07;6.35;4.89;
74419;PMS5003;62855;50.718;-2.460;2024-01-25T13:11:06;5.45;3.91;
74419;PMS5003;62855;50.718;-2.460;2024-01-25T13:14:06;4.54;3.91;
74419;PMS5003;62855;50.718;-2.460;2024-01-25T13:17:05;4.54;3.91;
74419;PMS5003;62855;50.718;-2.460;2024-01-25T13:20:06;4.54;3.91;
74419;PMS5003;62855;50.718;-2.460;2024-01-25T13:23:05;4.54;3.91;
74419;PMS5003;62855;50.718;-2.460;2024-01-25T13:26:05;3.63;2.93;
74419;PMS5003;62855;50.718;-2.460;2024-01-25T13:29:06;4.54;3.91;
74419;PMS5003;62855;50.718;-2.460;2024-01-25T13:32:07;4.54;2.93;
74419;PMS5003;62855;50.718;-2.460;2024-01-25T13:35:06;3.63;2.93;
74419;PMS5003;62855;50.718;-2.460;2024-01-25T13:38:05;3.63;2.93;
74419;PMS5003;62855;50.718;-2.460;2024-01-25T13:41:06;2.72;2.93;
74419;PMS5003;62855;50.718;-2.460;2024-01-25T13:44:05;3.63;2.93;
74419;PMS5003;62855;50.718;-2.460;2024-01-25T13:47:07;2.72;2.93;
74419;PMS5003;62855;50.718;-2.460;2024-01-25T13:50:06;2.72;2.93;
74419;PMS5003;62855;50.718;-2.460;2024-01-25T13:53:06;2.72;1.96;
74419;PMS5003;62855;50.718;-2.460;2024-01-25T13:56:05;3.63;2.93;
74419;PMS5003;62855;50.718;-2.460;2024-01-25T13:59:06;3.63;1.96;
74419;PMS5003;62855;50.718;-2.460;2024-01-25T14:02:08;3.63;1.96;
74419;PMS5003;62855;50.718;-2.460;2024-01-25T14:05:06;4.54;1.96;
74419;PMS5003;62855;50.718;-2.460;2024-01-25T14:08:06;4.54;1.96;
74419;PMS5003;62855;50.718;-2.460;2024-01-25T14:11:05;5.45;2.93;
74419;PMS5003;62855;50.718;-2.460;2024-01-25T14:14:07;5.45;2.93;
74419;PMS5003;62855;50.718;-2.460;2024-01-25T14:17:06;5.45;2.93;
74419;PMS5003;62855;50.718;-2.460;2024-01-25T14:20:06;6.35;3.91;
74419;PMS5003;62855;50.718;-2.460;2024-01-25T14:23:06;6.35;3.91;
74419;PMS5003;62855;50.718;-2.460;2024-01-25T14:26:07;6.35;4.89;
74419;PMS5003;62855;50.718;-2.460;2024-01-25T14:29:06;7.26;5.87;
74419;PMS5003;62855;50.718;-2.460;2024-01-25T14:32:06;7.26;5.87;
74419;PMS5003;62855;50.718;-2.460;2024-01-25T14:35:06;6.35;5.87;
74419;PMS5003;62855;50.718;-2.460;2024-01-25T14:38:07;5.45;4.89;
74419;PMS5003;62855;50.718;-2.460;2024-01-25T14:41:07;5.45;4.89;
74419;PMS5003;62855;50.718;-2.460;2024-01-25T14:44:05;4.54;3.91;
74419;PMS5003;62855;50.718;-2.460;2024-01-25T14:47:06;5.45;4.89;
74419;PMS5003;62855;50.718;-2.460;2024-01-25T14:50:05;4.54;3.91;
74419;PMS5003;62855;50.718;-2.460;2024-01-25T14:53:05;5.45;4.89;
74419;PMS5003;62855;50.718;-2.460;2024-01-25T14:56:06;6.35;4.89;
74419;PMS5003;62855;50.718;-2.460;2024-01-25T15:00:06;5.45;3.91;
74419;PMS5003;62855;50.718;-2.460;2024-01-25T15:03:06;6.35;4.89;
74419;PMS5003;62855;50.718;-2.460;2024-01-25T15:06:05;7.26;4.89;
74419;PMS5003;62855;50.718;-2.460;2024-01-25T15:09:06;7.26;5.87;
74419;PMS5003;62855;50.718;-2.460;2024-01-25T15:12:05;7.26;5.87;
74419;PMS5003;62855;50.718;-2.460;2024-01-25T15:15:06;8.17;5.87;
74419;PMS5003;62855;50.718;-2.460;2024-01-25T15:18:06;8.17;5.87;
74419;PMS5003;62855;50.718;-2.460;2024-01-25T15:21:05;9.08;5.87;
74419;PMS5003;62855;50.718;-2.460;2024-01-25T15:24:05;9.08;4.89;
74419;PMS5003;62855;50.718;-2.460;2024-01-25T15:27:06;9.08;4.89;
74419;PMS5003;62855;50.718;-2.460;2024-01-25T15:30:06;9.08;5.87;
74419;PMS5003;62855;50.718;-2.460;2024-01-25T15:33:06;7.26;3.91;
74419;PMS5003;62855;50.718;-2.460;2024-01-25T15:36:06;9.08;5.87;
74419;PMS5003;62855;50.718;-2.460;2024-01-25T15:39:05;9.08;5.87;
74419;PMS5003;62855;50.718;-2.460;2024-01-25T15:42:06;12.71;6.84;
74419;PMS5003;62855;50.718;-2.460;2024-01-25T15:45:05;11.80;6.84;
74419;PMS5003;62855;50.718;-2.460;2024-01-25T15:48:05;11.80;5.87;
74419;PMS5003;62855;50.718;-2.460;2024-01-25T15:52:05;11.80;4.89;
74419;PMS5003;62855;50.718;-2.460;2024-01-25T15:55:06;10.89;4.89;
74419;PMS5003;62855;50.718;-2.460;2024-01-25T15:58:06;10.89;5.87;
74419;PMS5003;62855;50.718;-2.460;2024-01-25T16:01:05;10.89;4.89;
74419;PMS5003;62855;50.718;-2.460;2024-01-25T16:04:06;10.89;5.87;
74419;PMS5003;62855;50.718;-2.460;2024-01-25T16:07:05;10.89;5.87;
74419;PMS5003;62855;50.718;-2.460;2024-01-25T16:10:06;9.08;3.91;
74419;PMS5003;62855;50.718;-2.460;2024-01-25T16:13:05;9.08;4.89;
74419;PMS5003;62855;50.718;-2.460;2024-01-25T16:16:06;8.17;3.91;
74419;PMS5003;62855;50.718;-2.460;2024-01-25T16:19:06;8.17;4.89;
74419;PMS5003;62855;50.718;-2.460;2024-01-25T16:22:05;9.98;6.84;
74419;PMS5003;62855;50.718;-2.460;2024-01-25T16:25:06;9.98;5.87;
74419;PMS5003;62855;50.718;-2.460;2024-01-25T16:28:06;9.08;4.89;
74419;PMS5003;62855;50.718;-2.460;2024-01-25T16:31:05;8.17;3.91;
74419;PMS5003;62855;50.718;-2.460;2024-01-25T16:34:06;9.08;3.91;
74419;PMS5003;62855;50.718;-2.460;2024-01-25T16:37:06;7.26;2.93;
74419;PMS5003;62855;50.718;-2.460;2024-01-25T16:40:06;7.26;2.93;
74419;PMS5003;62855;50.718;-2.460;2024-01-25T16:43:07;8.17;3.91;
74419;PMS5003;62855;50.718;-2.460;2024-01-25T16:46:06;7.26;2.93;
74419;PMS5003;62855;50.718;-2.460;2024-01-25T16:49:06;6.35;2.93;
74419;PMS5003;62855;50.718;-2.460;2024-01-25T16:52:05;8.17;3.91;
74419;PMS5003;62855;50.718;-2.460;2024-01-25T16:55:06;8.17;4.89;
74419;PMS5003;62855;50.718;-2.460;2024-01-25T16:58:05;8.17;4.89;
74419;PMS5003;62855;50.718;-2.460;2024-01-25T17:01:06;7.26;4.89;
74419;PMS5003;62855;50.718;-2.460;2024-01-25T17:04:05;7.26;4.89;
74419;PMS5003;62855;50.718;-2.460;2024-01-25T17:07:07;7.26;5.87;
74419;PMS5003;62855;50.718;-2.460;2024-01-25T17:13:05;8.17;5.87;
74419;PMS5003;62855;50.718;-2.460;2024-01-25T17:16:06;8.17;5.87;
74419;PMS5003;62855;50.718;-2.460;2024-01-25T17:19:07;8.17;5.87;
74419;PMS5003;62855;50.718;-2.460;2024-01-25T17:22:05;8.17;5.87;
74419;PMS5003;62855;50.718;-2.460;2024-01-25T17:25:06;7.26;5.87;
74419;PMS5003;62855;50.718;-2.460;2024-01-25T17:28:06;5.45;3.91;
74419;PMS5003;62855;50.718;-2.460;2024-01-25T17:31:08;6.35;3.91;
74419;PMS5003;62855;50.718;-2.460;2024-01-25T17:34:06;6.35;3.91;
74419;PMS5003;62855;50.718;-2.460;2024-01-25T17:37:05;6.35;3.91;
74419;PMS5003;62855;50.718;-2.460;2024-01-25T17:40:06;6.35;3.91;
74419;PMS5003;62855;50.718;-2.460;2024-01-25T17:43:06;4.54;2.93;
74419;PMS5003;62855;50.718;-2.460;2024-01-25T17:46:05;4.54;2.93;
74419;PMS5003;62855;50.718;-2.460;2024-01-25T17:49:07;3.63;2.93;
74419;PMS5003;62855;50.718;-2.460;2024-01-25T17:52:06;4.54;2.93;
74419;PMS5003;62855;50.718;-2.460;2024-01-25T17:55:06;4.54;2.93;
74419;PMS5003;62855;50.718;-2.460;2024-01-25T17:58:05;5.45;3.91;
74419;PMS5003;62855;50.718;-2.460;2024-01-25T18:01:06;4.54;3.91;
74419;PMS5003;62855;50.718;-2.460;2024-01-25T18:04:05;5.45;3.91;
74419;PMS5003;62855;50.718;-2.460;2024-01-25T18:07:06;5.45;3.91;
74419;PMS5003;62855;50.718;-2.460;2024-01-25T18:10:06;5.45;3.91;
74419;PMS5003;62855;50.718;-2.460;2024-01-25T18:13:08;5.45;4.89;
74419;PMS5003;62855;50.718;-2.460;2024-01-25T18:16:06;6.35;4.89;
74419;PMS5003;62855;50.718;-2.460;2024-01-25T18:19:05;6.35;5.87;
74419;PMS5003;62855;50.718;-2.460;2024-01-25T18:22:06;6.35;4.89;
74419;PMS5003;62855;50.718;-2.460;2024-01-25T18:25:06;8.17;6.84;
74419;PMS5003;62855;50.718;-2.460;2024-01-25T18:28:05;7.26;5.87;